createdAt,value
2023-05-25T00:00:53.438Z,21.22
2023-05-25T00:03:27.938Z,21.20
2023-05-25T00:05:54.602Z,21.20
2023-05-25T00:08:21.210Z,21.20
2023-05-25T00:10:47.659Z,21.20
2023-05-25T00:13:14.044Z,21.19
2023-05-25T00:15:40.680Z,21.18
2023-05-25T00:18:07.124Z,21.18
2023-05-25T00:20:33.620Z,21.18
2023-05-25T00:23:02.236Z,21.17
2023-05-25T00:25:29.059Z,21.17
2023-05-25T00:27:55.469Z,21.16
2023-05-25T00:30:21.907Z,21.16
2023-05-25T00:32:48.374Z,21.16
2023-05-25T00:35:14.858Z,21.18
2023-05-25T00:37:41.270Z,21.18
2023-05-25T00:40:10.688Z,21.17
2023-05-25T00:42:38.679Z,21.17
2023-05-25T00:45:05.290Z,21.17
2023-05-25T00:47:32.069Z,21.15
2023-05-25T00:49:58.491Z,21.16
2023-05-25T00:52:27.092Z,21.16
2023-05-25T00:54:56.237Z,21.15
2023-05-25T00:57:23.474Z,21.15
2023-05-25T00:59:51.528Z,21.15
2023-05-25T01:02:19.067Z,21.13
2023-05-25T01:04:47.011Z,21.14
2023-05-25T01:07:17.616Z,21.14
2023-05-25T01:09:46.754Z,21.13
2023-05-25T01:12:14.545Z,21.12
2023-05-25T01:14:41.021Z,21.12
2023-05-25T01:17:07.808Z,21.13
2023-05-25T01:19:35.944Z,21.11
2023-05-25T01:22:07.831Z,21.12
2023-05-25T01:24:34.984Z,21.12
2023-05-25T01:27:07.920Z,21.11
2023-05-25T01:29:35.055Z,21.11
2023-05-25T01:32:02.741Z,21.11
2023-05-25T01:34:29.178Z,21.10
2023-05-25T01:36:56.629Z,21.08
2023-05-25T01:39:23.107Z,21.09
2023-05-25T01:41:49.576Z,21.09
2023-05-25T01:44:15.987Z,21.10
2023-05-25T01:46:42.463Z,21.07
2023-05-25T01:49:28.236Z,21.09
2023-05-25T01:52:00.637Z,21.08
2023-05-25T01:54:29.535Z,21.09
2023-05-25T01:56:56.350Z,21.08
2023-05-25T01:59:22.830Z,21.05
2023-05-25T02:01:53.114Z,21.07
2023-05-25T02:04:20.089Z,21.08
2023-05-25T02:06:48.321Z,21.07
2023-05-25T02:09:14.771Z,21.08
2023-05-25T02:11:41.161Z,21.07
2023-05-25T02:14:09.034Z,21.07
2023-05-25T02:16:35.514Z,21.06
2023-05-25T02:19:02.226Z,21.05
2023-05-25T02:21:28.786Z,21.04
2023-05-25T02:23:55.229Z,21.04
2023-05-25T02:26:21.754Z,21.04
2023-05-25T02:28:48.175Z,21.02
2023-05-25T02:31:17.052Z,21.02
2023-05-25T02:33:43.516Z,21.02
2023-05-25T02:36:09.942Z,21.01
2023-05-25T02:38:36.348Z,21.01
2023-05-25T02:41:02.831Z,21.01
2023-05-25T02:43:29.261Z,21.01
2023-05-25T02:45:55.659Z,21.00
2023-05-25T02:48:23.151Z,20.99
2023-05-25T02:50:49.581Z,21.00
2023-05-25T02:53:16.004Z,21.00
2023-05-25T02:55:43.550Z,21.00
2023-05-25T02:58:14.586Z,20.99
2023-05-25T03:00:56.903Z,20.99
2023-05-25T03:03:23.384Z,20.98
2023-05-25T03:05:49.860Z,20.98
2023-05-25T03:08:16.763Z,20.99
2023-05-25T03:10:43.148Z,20.98
2023-05-25T03:13:09.927Z,20.96
2023-05-25T03:15:36.374Z,20.97
2023-05-25T03:18:04.775Z,20.96
2023-05-25T03:20:34.821Z,20.95
2023-05-25T03:23:01.520Z,20.96
2023-05-25T03:25:28.045Z,20.95
2023-05-25T03:27:54.543Z,20.95
2023-05-25T03:30:21.805Z,20.94
2023-05-25T03:32:48.231Z,20.95
2023-05-25T03:35:14.889Z,20.93
2023-05-25T03:37:41.293Z,20.93
2023-05-25T03:40:09.579Z,20.93
2023-05-25T03:42:36.800Z,20.92
2023-05-25T03:45:03.410Z,20.92
2023-05-25T03:47:29.922Z,20.91
2023-05-25T03:49:56.880Z,20.91
2023-05-25T03:52:23.290Z,20.91
2023-05-25T03:54:49.750Z,20.90
2023-05-25T03:57:16.224Z,20.90
2023-05-25T03:59:42.626Z,20.90
2023-05-25T04:02:09.129Z,20.89
2023-05-25T04:04:35.538Z,20.90
2023-05-25T04:07:02.000Z,20.89
2023-05-25T04:09:29.803Z,20.90
2023-05-25T04:11:56.221Z,20.88
2023-05-25T04:14:22.913Z,20.88
2023-05-25T04:16:49.497Z,20.88
2023-05-25T04:19:16.234Z,20.88
2023-05-25T04:21:42.649Z,20.88
2023-05-25T04:24:10.402Z,20.88
2023-05-25T04:26:39.426Z,20.87
2023-05-25T04:29:06.988Z,20.87
2023-05-25T04:31:54.646Z,20.87
2023-05-25T04:34:39.710Z,20.87
2023-05-25T04:37:13.863Z,20.87
2023-05-25T04:39:40.453Z,20.86
2023-05-25T04:42:07.781Z,20.86
2023-05-25T04:44:34.681Z,20.86
2023-05-25T04:47:02.550Z,20.85
2023-05-25T04:49:31.712Z,20.86
2023-05-25T04:51:58.187Z,20.83
2023-05-25T04:54:25.588Z,20.83
2023-05-25T04:56:52.016Z,20.85
2023-05-25T04:59:18.402Z,20.84
2023-05-25T05:01:45.803Z,20.89
2023-05-25T05:04:16.272Z,20.92
2023-05-25T05:06:42.844Z,20.92
2023-05-25T05:09:13.910Z,20.91
2023-05-25T05:11:40.386Z,20.91
2023-05-25T05:14:07.445Z,20.96
2023-05-25T05:16:35.147Z,20.95
2023-05-25T05:19:02.012Z,20.92
2023-05-25T05:21:29.161Z,20.91
2023-05-25T05:23:56.289Z,20.89
2023-05-25T05:26:23.016Z,20.89
2023-05-25T05:28:49.453Z,20.89
2023-05-25T05:31:18.512Z,20.91
2023-05-25T05:33:45.181Z,20.91
2023-05-25T05:36:11.654Z,20.92
2023-05-25T05:38:41.370Z,20.92
2023-05-25T05:41:13.959Z,20.92
2023-05-25T05:43:42.777Z,20.95
2023-05-25T05:46:09.822Z,20.99
2023-05-25T05:48:36.702Z,21.21
2023-05-25T05:51:04.042Z,21.31
2023-05-25T05:53:30.737Z,21.21
2023-05-25T05:55:59.301Z,21.08
2023-05-25T05:58:28.782Z,21.06
2023-05-25T06:00:56.260Z,21.06
2023-05-25T06:03:22.922Z,21.06
2023-05-25T06:05:49.365Z,21.07
2023-05-25T06:08:17.226Z,21.07
2023-05-25T06:10:43.605Z,21.08
2023-05-25T06:13:10.009Z,21.09
2023-05-25T06:15:36.435Z,21.07
2023-05-25T06:18:08.182Z,21.09
2023-05-25T06:20:35.663Z,21.05
2023-05-25T06:23:02.088Z,21.15
2023-05-25T06:25:28.552Z,21.43
2023-05-25T06:27:55.861Z,21.52
2023-05-25T06:30:22.269Z,21.56
2023-05-25T06:32:48.833Z,21.64
2023-05-25T06:35:19.853Z,21.73
2023-05-25T06:37:49.080Z,21.75
2023-05-25T06:40:17.676Z,21.82
2023-05-25T06:42:45.287Z,21.81
2023-05-25T06:45:40.772Z,21.85
2023-05-25T06:48:07.207Z,21.60
2023-05-25T06:50:33.668Z,21.47
2023-05-25T06:53:00.622Z,21.48
2023-05-25T06:55:27.144Z,21.42
2023-05-25T06:57:53.521Z,21.37
2023-05-25T07:00:21.415Z,21.32
2023-05-25T07:02:47.855Z,21.28
2023-05-25T07:05:14.321Z,21.64
2023-05-25T07:07:40.776Z,21.70
2023-05-25T07:10:07.485Z,21.88
2023-05-25T07:12:33.868Z,21.79
2023-05-25T07:15:00.260Z,21.74
2023-05-25T07:17:26.769Z,21.53
2023-05-25T07:19:53.357Z,21.34
2023-05-25T07:22:19.834Z,21.06
2023-05-25T07:24:46.853Z,20.42
2023-05-25T07:27:14.126Z,20.12
2023-05-25T07:29:40.521Z,20.44
2023-05-25T07:32:07.102Z,20.70
2023-05-25T07:34:33.706Z,20.91
2023-05-25T07:37:00.102Z,21.01
2023-05-25T07:39:26.797Z,21.06
2023-05-25T07:41:53.216Z,21.06
2023-05-25T07:44:19.625Z,21.12
2023-05-25T07:49:15.962Z,21.13
2023-05-25T07:51:43.166Z,21.14
2023-05-25T07:54:09.568Z,21.15
2023-05-25T07:56:36.045Z,21.17
2023-05-25T07:59:02.420Z,21.13
2023-05-25T08:01:28.947Z,21.15
2023-05-25T08:03:55.442Z,21.14
2023-05-25T08:06:21.991Z,21.15
2023-05-25T08:08:49.939Z,21.16
2023-05-25T08:11:17.047Z,21.15
2023-05-25T08:13:43.606Z,21.16
2023-05-25T08:16:10.001Z,21.15
2023-05-25T08:18:36.417Z,20.91
2023-05-25T08:21:02.856Z,20.68
2023-05-25T08:23:29.260Z,21.06
2023-05-25T08:25:55.644Z,21.19
2023-05-25T08:28:22.278Z,21.21
2023-05-25T08:30:48.734Z,21.12
2023-05-25T08:33:15.158Z,21.23
2023-05-25T08:35:42.997Z,20.98
2023-05-25T08:38:09.585Z,21.62
2023-05-25T08:40:35.970Z,21.92
2023-05-25T08:43:02.379Z,21.93
2023-05-25T08:45:36.092Z,21.94
2023-05-25T08:48:04.468Z,21.94
2023-05-25T08:50:31.107Z,21.82
2023-05-25T08:52:57.493Z,21.76
2023-05-25T08:55:23.943Z,21.75
2023-05-25T08:58:03.225Z,21.71
2023-05-25T09:00:31.231Z,21.62
2023-05-25T09:03:07.277Z,21.81
2023-05-25T09:05:38.056Z,22.01
2023-05-25T09:08:05.168Z,22.15
2023-05-25T09:10:31.531Z,22.10
2023-05-25T09:12:57.943Z,22.12
2023-05-25T09:15:24.332Z,22.18
2023-05-25T09:17:50.799Z,22.16
2023-05-25T09:20:17.257Z,22.07
2023-05-25T09:22:43.935Z,21.94
2023-05-25T09:25:10.467Z,22.11
2023-05-25T09:27:37.559Z,22.10
2023-05-25T09:30:04.067Z,22.11
2023-05-25T09:32:30.710Z,22.26
2023-05-25T09:34:57.784Z,22.31
2023-05-25T09:37:24.278Z,22.29
2023-05-25T09:39:51.289Z,22.11
2023-05-25T09:42:17.859Z,22.14
2023-05-25T09:44:44.252Z,22.25
2023-05-25T09:47:10.763Z,22.37
2023-05-25T09:49:37.190Z,22.14
2023-05-25T09:52:03.913Z,21.94
2023-05-25T09:54:30.381Z,21.79
2023-05-25T09:56:56.773Z,21.75
2023-05-25T09:59:23.187Z,21.85
2023-05-25T10:01:50.859Z,21.89
2023-05-25T10:04:17.282Z,21.90
2023-05-25T10:06:43.967Z,21.87
2023-05-25T10:09:10.349Z,21.89
2023-05-25T10:11:36.833Z,21.91
2023-05-25T10:14:04.319Z,21.95
2023-05-25T10:16:30.964Z,21.95
2023-05-25T10:18:57.333Z,21.84
2023-05-25T10:21:23.735Z,21.91
2023-05-25T10:23:51.184Z,21.94
2023-05-25T10:26:21.942Z,22.10
2023-05-25T10:28:50.421Z,22.25
2023-05-25T10:31:16.905Z,22.23
2023-05-25T10:33:47.458Z,22.35
2023-05-25T10:36:17.951Z,22.30
2023-05-25T10:38:44.761Z,22.37
2023-05-25T10:41:11.268Z,22.20
2023-05-25T10:43:38.362Z,22.35
2023-05-25T10:46:05.377Z,22.45
2023-05-25T10:48:48.471Z,22.36
2023-05-25T10:51:14.879Z,22.46
2023-05-25T10:53:45.862Z,22.49
2023-05-25T10:56:13.341Z,22.48
2023-05-25T10:58:46.443Z,22.43
2023-05-25T11:01:13.361Z,22.52
2023-05-25T11:03:58.850Z,22.54
2023-05-25T11:06:37.601Z,22.54
2023-05-25T11:09:04.233Z,22.59
2023-05-25T11:11:43.019Z,22.61
2023-05-25T11:14:21.695Z,22.55
2023-05-25T11:17:03.862Z,22.62
2023-05-25T11:19:38.757Z,22.59
2023-05-25T11:22:15.249Z,22.64
2023-05-25T11:24:45.206Z,22.58
2023-05-25T11:27:11.685Z,22.59
2023-05-25T11:29:38.130Z,22.42
2023-05-25T11:32:04.569Z,22.27
2023-05-25T11:34:32.031Z,22.34
2023-05-25T11:37:01.676Z,22.51
2023-05-25T11:39:28.556Z,22.57
2023-05-25T11:41:55.961Z,22.55
2023-05-25T11:44:27.237Z,22.52
2023-05-25T11:46:54.447Z,22.33
2023-05-25T11:49:21.300Z,22.27
2023-05-25T11:51:47.694Z,22.35
2023-05-25T11:54:41.565Z,22.57
2023-05-25T11:57:14.455Z,22.58
2023-05-25T11:59:41.003Z,22.56
2023-05-25T12:02:07.436Z,22.59
2023-05-25T12:04:34.195Z,22.37
2023-05-25T12:07:04.305Z,22.39
2023-05-25T12:09:30.711Z,22.19
2023-05-25T12:11:57.109Z,22.13
2023-05-25T12:14:23.984Z,22.11
2023-05-25T12:16:50.547Z,22.10
2023-05-25T12:19:16.957Z,22.08
2023-05-25T12:21:43.384Z,22.06
2023-05-25T12:24:09.998Z,22.19
2023-05-25T12:26:36.668Z,22.31
2023-05-25T12:29:06.483Z,22.16
2023-05-25T12:31:34.149Z,22.32
2023-05-25T12:34:04.062Z,22.40
2023-05-25T12:36:42.823Z,22.48
2023-05-25T12:39:09.821Z,22.42
2023-05-25T12:41:43.141Z,22.49
2023-05-25T12:44:26.063Z,22.49
2023-05-25T12:46:53.087Z,22.72
2023-05-25T12:49:22.498Z,22.75
2023-05-25T12:51:48.883Z,22.65
2023-05-25T12:54:15.429Z,22.72
2023-05-25T12:56:54.574Z,22.84
2023-05-25T12:59:21.281Z,22.85
2023-05-25T13:01:47.721Z,22.83
2023-05-25T13:04:14.113Z,22.80
2023-05-25T13:06:40.508Z,22.79
2023-05-25T13:09:06.882Z,22.80
2023-05-25T13:11:33.252Z,22.82
2023-05-25T13:13:59.625Z,22.83
2023-05-25T13:16:26.588Z,22.64
2023-05-25T13:18:53.027Z,22.63
2023-05-25T13:21:19.436Z,22.56
2023-05-25T13:23:45.839Z,22.46
2023-05-25T13:26:12.715Z,22.41
2023-05-25T13:28:39.116Z,22.48
2023-05-25T13:31:05.530Z,22.45
2023-05-25T13:33:31.917Z,22.55
2023-05-25T13:35:58.861Z,22.57
2023-05-25T13:38:25.414Z,22.65
2023-05-25T13:40:52.487Z,22.72
2023-05-25T13:43:18.986Z,23.02
2023-05-25T13:45:45.583Z,22.72
2023-05-25T13:48:12.222Z,22.70
2023-05-25T13:50:38.630Z,22.78
2023-05-25T13:53:05.407Z,22.91
2023-05-25T13:55:31.794Z,22.97
2023-05-25T13:57:58.240Z,23.09
2023-05-25T14:00:24.727Z,22.96
2023-05-25T14:02:51.532Z,22.92
2023-05-25T14:05:19.742Z,22.98
2023-05-25T14:07:47.065Z,23.12
2023-05-25T14:10:13.513Z,23.13
2023-05-25T14:12:39.967Z,23.16
2023-05-25T14:15:06.704Z,23.22
2023-05-25T14:17:33.113Z,23.25
2023-05-25T14:19:59.994Z,23.13
2023-05-25T14:22:27.877Z,23.12
2023-05-25T14:24:54.293Z,23.18
2023-05-25T14:27:23.609Z,23.30
2023-05-25T14:29:50.508Z,23.22
2023-05-25T14:32:17.222Z,23.16
2023-05-25T14:34:43.616Z,23.26
2023-05-25T14:37:10.034Z,23.22
2023-05-25T14:39:36.606Z,22.97
2023-05-25T14:42:03.310Z,22.91
2023-05-25T14:44:29.687Z,22.89
2023-05-25T14:46:56.143Z,22.94
2023-05-25T14:49:24.835Z,22.81
2023-05-25T14:51:51.411Z,22.75
2023-05-25T14:54:17.825Z,22.85
2023-05-25T14:56:44.247Z,22.95
2023-05-25T14:59:10.693Z,22.94
2023-05-25T15:01:37.156Z,22.96
2023-05-25T15:04:03.745Z,23.09
2023-05-25T15:06:31.735Z,22.93
2023-05-25T15:08:58.182Z,22.87
2023-05-25T15:11:24.602Z,23.03
2023-05-25T15:13:51.015Z,23.08
2023-05-25T15:16:17.454Z,23.15
2023-05-25T15:18:43.943Z,23.25
2023-05-25T15:21:10.504Z,23.26
2023-05-25T15:23:37.204Z,23.12
2023-05-25T15:26:07.980Z,23.02
2023-05-25T15:28:34.616Z,22.95
2023-05-25T15:31:02.725Z,22.98
2023-05-25T15:33:39.878Z,22.99
2023-05-25T15:36:14.605Z,23.08
2023-05-25T15:38:42.928Z,23.15
2023-05-25T15:41:09.328Z,23.11
2023-05-25T15:43:35.820Z,23.08
2023-05-25T15:46:02.240Z,23.09
2023-05-25T15:48:28.624Z,23.20
2023-05-25T15:50:55.016Z,23.24
2023-05-25T15:53:21.406Z,23.21
2023-05-25T15:55:47.800Z,22.98
2023-05-25T15:58:14.172Z,22.88
2023-05-25T16:00:40.624Z,22.84
2023-05-25T16:03:07.062Z,23.03
2023-05-25T16:05:33.467Z,23.01
2023-05-25T16:07:59.846Z,22.97
2023-05-25T16:10:26.218Z,22.92
2023-05-25T16:12:52.602Z,22.88
2023-05-25T16:15:19.760Z,22.86
2023-05-25T16:17:46.154Z,22.83
2023-05-25T16:20:12.575Z,22.73
2023-05-25T16:22:39.004Z,22.73
2023-05-25T16:25:05.659Z,22.73
2023-05-25T16:27:32.138Z,22.71
2023-05-25T16:29:58.604Z,22.71
2023-05-25T16:32:25.021Z,22.71
2023-05-25T16:34:51.414Z,22.69
2023-05-25T16:37:17.810Z,22.68
2023-05-25T16:39:44.208Z,22.65
2023-05-25T16:42:10.866Z,22.64
2023-05-25T16:44:37.282Z,22.62
2023-05-25T16:47:03.678Z,22.61
2023-05-25T16:49:30.070Z,22.61
2023-05-25T16:51:56.509Z,22.58
2023-05-25T16:54:22.955Z,22.56
2023-05-25T16:56:49.353Z,22.55
2023-05-25T16:59:15.744Z,22.55
2023-05-25T17:01:42.225Z,22.54
2023-05-25T17:04:08.669Z,22.53
2023-05-25T17:06:35.077Z,22.50
2023-05-25T17:09:01.468Z,22.51
2023-05-25T17:11:28.095Z,22.51
2023-05-25T17:13:54.527Z,22.50
2023-05-25T17:16:21.364Z,22.51
2023-05-25T17:18:47.876Z,22.50
2023-05-25T17:21:14.276Z,22.51
2023-05-25T17:23:41.501Z,22.50
2023-05-25T17:26:07.896Z,22.50
2023-05-25T17:28:34.328Z,22.49
2023-05-25T17:31:01.144Z,22.49
2023-05-25T17:33:27.584Z,22.49
2023-05-25T17:35:54.034Z,22.48
2023-05-25T17:38:20.490Z,22.47
2023-05-25T17:40:48.118Z,22.47
2023-05-25T17:43:14.592Z,22.45
2023-05-25T17:45:41.035Z,22.45
2023-05-25T17:48:07.459Z,22.41
2023-05-25T17:50:33.900Z,22.14
2023-05-25T17:53:00.298Z,22.25
2023-05-25T17:55:27.002Z,22.31
2023-05-25T17:57:53.378Z,22.37
2023-05-25T18:00:22.893Z,22.35
2023-05-25T18:02:50.096Z,22.48
2023-05-25T18:05:16.517Z,22.50
2023-05-25T18:07:42.929Z,22.47
2023-05-25T18:10:09.488Z,22.45
2023-05-25T18:12:35.868Z,22.56
2023-05-25T18:15:02.481Z,22.51
2023-05-25T18:17:28.890Z,22.45
2023-05-25T18:19:55.604Z,22.42
2023-05-25T18:22:22.018Z,22.40
2023-05-25T18:24:48.416Z,22.37
2023-05-25T18:27:14.802Z,22.31
2023-05-25T18:29:41.332Z,22.37
2023-05-25T18:32:07.715Z,22.38
2023-05-25T18:34:34.098Z,22.39
2023-05-25T18:37:00.553Z,22.38
2023-05-25T18:39:26.933Z,22.35
2023-05-25T18:41:53.359Z,22.34
2023-05-25T18:44:19.763Z,22.33
2023-05-25T18:46:48.328Z,22.31
2023-05-25T18:49:14.774Z,22.28
2023-05-25T18:51:41.180Z,22.29
2023-05-25T18:54:07.571Z,22.29
2023-05-25T18:56:33.935Z,22.29
2023-05-25T18:59:00.518Z,22.15
2023-05-25T19:01:26.888Z,22.21
2023-05-25T19:03:56.022Z,22.26
2023-05-25T19:06:23.961Z,22.25
2023-05-25T19:08:50.352Z,22.28
2023-05-25T19:11:16.842Z,22.25
2023-05-25T19:13:43.362Z,22.28
2023-05-25T19:16:09.819Z,22.25
2023-05-25T19:18:36.238Z,22.30
2023-05-25T19:21:02.772Z,22.31
2023-05-25T19:23:29.191Z,22.25
2023-05-25T19:25:55.573Z,22.25
2023-05-25T19:28:21.960Z,22.23
2023-05-25T19:30:48.361Z,22.23
2023-05-25T19:33:14.838Z,22.20
2023-05-25T19:35:41.636Z,22.21
2023-05-25T19:38:08.033Z,22.17
2023-05-25T19:40:34.414Z,22.16
2023-05-25T19:43:00.790Z,22.15
2023-05-25T19:45:27.244Z,22.14
2023-05-25T19:47:54.434Z,22.13
2023-05-25T19:50:21.377Z,22.12
2023-05-25T19:52:47.758Z,22.15
2023-05-25T19:55:14.148Z,22.14
2023-05-25T19:57:40.610Z,22.15
2023-05-25T20:00:11.553Z,22.13
2023-05-25T20:02:47.490Z,22.10
2023-05-25T20:05:13.939Z,22.09
2023-05-25T20:07:41.057Z,22.10
2023-05-25T20:10:07.627Z,22.08
2023-05-25T20:12:34.980Z,22.09
2023-05-25T20:15:01.367Z,22.08
2023-05-25T20:17:27.976Z,22.08
2023-05-25T20:19:56.379Z,22.07
2023-05-25T20:22:22.921Z,22.06
2023-05-25T20:24:50.449Z,22.05
2023-05-25T20:27:17.286Z,22.04
2023-05-25T20:29:43.659Z,22.05
2023-05-25T20:32:10.151Z,22.05
2023-05-25T20:34:36.702Z,22.02
2023-05-25T20:37:03.101Z,22.02
2023-05-25T20:39:29.495Z,22.03
2023-05-25T20:41:56.024Z,22.03
2023-05-25T20:44:22.402Z,22.02
2023-05-25T20:46:48.817Z,22.01
2023-05-25T20:49:15.429Z,21.99
2023-05-25T20:51:44.352Z,21.99
2023-05-25T20:54:10.918Z,22.00
2023-05-25T20:56:37.285Z,22.01
2023-05-25T20:59:03.684Z,22.01
2023-05-25T21:01:30.664Z,22.02
2023-05-25T21:03:57.194Z,22.03
2023-05-25T21:06:23.657Z,22.02
2023-05-25T21:08:50.061Z,21.99
2023-05-25T21:11:16.484Z,22.00
2023-05-25T21:13:42.881Z,22.00
2023-05-25T21:16:09.328Z,21.98
2023-05-25T21:18:35.724Z,21.95
2023-05-25T21:21:02.094Z,21.98
2023-05-25T21:23:28.698Z,21.96
2023-05-25T21:25:55.086Z,21.97
2023-05-25T21:28:21.468Z,21.96
2023-05-25T21:30:47.838Z,21.94
2023-05-25T21:33:14.336Z,21.92
2023-05-25T21:35:40.808Z,21.88
2023-05-25T21:38:07.194Z,21.90
2023-05-25T21:40:33.574Z,21.91
2023-05-25T21:42:59.956Z,21.89
2023-05-25T21:45:26.344Z,21.90
2023-05-25T21:47:52.850Z,21.90
2023-05-25T21:50:19.319Z,21.91
2023-05-25T21:52:46.053Z,21.89
2023-05-25T21:55:12.440Z,21.89
2023-05-25T21:57:38.829Z,21.89
2023-05-25T22:00:06.201Z,21.91
2023-05-25T22:02:39.225Z,21.89
2023-05-25T22:05:05.723Z,21.88
2023-05-25T22:07:32.142Z,21.85
2023-05-25T22:09:58.516Z,21.86
2023-05-25T22:12:24.879Z,21.83
2023-05-25T22:14:51.269Z,21.84
2023-05-25T22:17:18.883Z,21.84
2023-05-25T22:19:52.115Z,21.82
2023-05-25T22:22:25.679Z,21.82
2023-05-25T22:24:52.088Z,21.80
2023-05-25T22:27:18.494Z,21.80
2023-05-25T22:29:44.892Z,21.80
2023-05-25T22:32:11.302Z,21.79
2023-05-25T22:34:37.687Z,21.80
2023-05-25T22:37:04.239Z,21.80
2023-05-25T22:39:30.614Z,21.79
2023-05-25T22:41:57.036Z,21.78
2023-05-25T22:44:23.433Z,21.77
2023-05-25T22:46:49.887Z,21.75
2023-05-25T22:49:16.519Z,21.76
2023-05-25T22:51:42.895Z,21.79
2023-05-25T22:54:09.283Z,21.78
2023-05-25T22:56:36.116Z,21.79
2023-05-25T22:59:02.522Z,21.77
2023-05-25T23:01:28.935Z,21.77
2023-05-25T23:03:55.481Z,21.77
2023-05-25T23:06:21.980Z,21.75
2023-05-25T23:08:48.395Z,21.74
2023-05-25T23:11:14.779Z,21.73
2023-05-25T23:13:42.702Z,21.72
2023-05-25T23:16:09.096Z,21.71
2023-05-25T23:18:35.520Z,21.72
2023-05-25T23:21:01.961Z,21.70
2023-05-25T23:23:28.445Z,21.70
2023-05-25T23:25:54.937Z,21.70
2023-05-25T23:28:21.390Z,21.69
2023-05-25T23:30:47.803Z,21.68
2023-05-25T23:33:14.188Z,21.68
2023-05-25T23:35:40.567Z,21.68
2023-05-25T23:38:06.990Z,21.66
2023-05-25T23:40:33.365Z,21.65
2023-05-25T23:42:59.796Z,21.66
2023-05-25T23:45:26.360Z,21.65
2023-05-25T23:47:52.837Z,21.64
2023-05-25T23:50:19.358Z,21.65
2023-05-25T23:52:46.267Z,21.63
2023-05-25T23:55:12.826Z,21.64
2023-05-25T23:57:39.494Z,21.62
